KVSF/VSF METAR and TAF weather

Enter ICAO airport designator
Station Type Date Time Source
KVSF METAR 2020/09/22 03:54 UTC NOAA

KVSF 220354Z AUTO 00000KT 10SM CLR 02/01 A3040 RMK AO2 SLP298 T00170006


Station Type Date Time Source
KVSF Decoded METAR 2020/09/22 03:54 UTC NOAA

HARTNESS STATE AIRPORT, VT, United States (KVSF) 43-21N 72-31W 175M
Sep 21, 2020 - 11:54 PM EDT / 2020.09.22 0354 UTC
Wind: Calm:0
Visibility: 10 mile(s):0
Sky conditions: clear
Temperature: 35.1 F (1.7 C)
Dew Point: 33.1 F (0.6 C)
Relative Humidity: 92%
Pressure (altimeter): 30.4 in. Hg (1029 hPa)
ob: KVSF 220354Z AUTO 00000KT 10SM CLR 02/01 A3040 RMK AO2 SLP298 T00170006
cycle: 4

Station Type Date Time Source
KVSF TAF UTC NOAA

Error!

Example: see airport list